sensor_id;sensor_type;location;lat;lon;timestamp;P1;durP1;ratioP1;P2;durP2;ratioP2
4529;SDS011;2277;51.626;7.516;2022-08-19T00:01:56;2.93;;;2.60;;
4529;SDS011;2277;51.626;7.516;2022-08-19T00:04:24;5.33;;;3.27;;
4529;SDS011;2277;51.626;7.516;2022-08-19T00:06:52;8.57;;;3.47;;
4529;SDS011;2277;51.626;7.516;2022-08-19T00:09:19;15.23;;;3.80;;
4529;SDS011;2277;51.626;7.516;2022-08-19T00:11:47;10.93;;;4.80;;
4529;SDS011;2277;51.626;7.516;2022-08-19T00:14:14;3.03;;;2.30;;
4529;SDS011;2277;51.626;7.516;2022-08-19T00:16:42;7.00;;;3.47;;
4529;SDS011;2277;51.626;7.516;2022-08-19T00:19:10;4.60;;;3.47;;
4529;SDS011;2277;51.626;7.516;2022-08-19T00:21:36;4.73;;;4.23;;
4529;SDS011;2277;51.626;7.516;2022-08-19T00:24:08;4.27;;;3.97;;
4529;SDS011;2277;51.626;7.516;2022-08-19T00:26:35;4.30;;;3.90;;
4529;SDS011;2277;51.626;7.516;2022-08-19T00:29:02;5.30;;;3.97;;
4529;SDS011;2277;51.626;7.516;2022-08-19T00:31:28;3.80;;;3.50;;
4529;SDS011;2277;51.626;7.516;2022-08-19T00:33:56;3.60;;;3.03;;
4529;SDS011;2277;51.626;7.516;2022-08-19T00:36:22;6.00;;;4.23;;
4529;SDS011;2277;51.626;7.516;2022-08-19T00:38:48;3.00;;;2.70;;
4529;SDS011;2277;51.626;7.516;2022-08-19T00:41:17;5.00;;;4.50;;
4529;SDS011;2277;51.626;7.516;2022-08-19T00:44:08;7.17;;;4.07;;
4529;SDS011;2277;51.626;7.516;2022-08-19T00:46:36;4.40;;;4.00;;
4529;SDS011;2277;51.626;7.516;2022-08-19T00:49:06;4.03;;;2.90;;
4529;SDS011;2277;51.626;7.516;2022-08-19T00:51:39;6.43;;;5.87;;
4529;SDS011;2277;51.626;7.516;2022-08-19T00:54:06;4.47;;;4.07;;
4529;SDS011;2277;51.626;7.516;2022-08-19T00:56:34;4.73;;;4.37;;
4529;SDS011;2277;51.626;7.516;2022-08-19T00:59:00;3.77;;;2.73;;
4529;SDS011;2277;51.626;7.516;2022-08-19T01:01:27;4.03;;;3.60;;
4529;SDS011;2277;51.626;7.516;2022-08-19T01:03:53;3.30;;;3.00;;
4529;SDS011;2277;51.626;7.516;2022-08-19T01:06:18;4.03;;;3.07;;
4529;SDS011;2277;51.626;7.516;2022-08-19T01:08:44;5.33;;;4.70;;
4529;SDS011;2277;51.626;7.516;2022-08-19T01:11:10;8.70;;;4.73;;
4529;SDS011;2277;51.626;7.516;2022-08-19T01:13:36;5.53;;;4.57;;
4529;SDS011;2277;51.626;7.516;2022-08-19T01:16:03;4.03;;;3.60;;
4529;SDS011;2277;51.626;7.516;2022-08-19T01:18:32;3.50;;;2.50;;
4529;SDS011;2277;51.626;7.516;2022-08-19T01:21:05;5.10;;;3.50;;
4529;SDS011;2277;51.626;7.516;2022-08-19T01:23:35;2.80;;;2.37;;
4529;SDS011;2277;51.626;7.516;2022-08-19T01:26:08;2.93;;;2.73;;
4529;SDS011;2277;51.626;7.516;2022-08-19T01:28:36;7.20;;;3.77;;
4529;SDS011;2277;51.626;7.516;2022-08-19T01:31:03;3.20;;;2.50;;
4529;SDS011;2277;51.626;7.516;2022-08-19T01:33:29;4.70;;;4.27;;
4529;SDS011;2277;51.626;7.516;2022-08-19T01:36:21;4.20;;;2.97;;
4529;SDS011;2277;51.626;7.516;2022-08-19T01:38:51;3.40;;;3.07;;
4529;SDS011;2277;51.626;7.516;2022-08-19T01:41:17;6.23;;;4.90;;
4529;SDS011;2277;51.626;7.516;2022-08-19T01:43:43;3.33;;;2.57;;
4529;SDS011;2277;51.626;7.516;2022-08-19T01:46:09;3.47;;;3.17;;
4529;SDS011;2277;51.626;7.516;2022-08-19T01:48:37;4.10;;;3.03;;
4529;SDS011;2277;51.626;7.516;2022-08-19T01:51:04;4.33;;;3.93;;
4529;SDS011;2277;51.626;7.516;2022-08-19T01:53:31;3.80;;;3.40;;
4529;SDS011;2277;51.626;7.516;2022-08-19T01:55:57;4.73;;;2.93;;
4529;SDS011;2277;51.626;7.516;2022-08-19T01:58:24;3.63;;;3.33;;
4529;SDS011;2277;51.626;7.516;2022-08-19T02:00:55;5.67;;;3.67;;
4529;SDS011;2277;51.626;7.516;2022-08-19T02:03:21;4.57;;;3.80;;
4529;SDS011;2277;51.626;7.516;2022-08-19T02:05:47;4.90;;;3.83;;
4529;SDS011;2277;51.626;7.516;2022-08-19T02:08:18;4.07;;;3.30;;
4529;SDS011;2277;51.626;7.516;2022-08-19T02:10:44;4.10;;;3.60;;
4529;SDS011;2277;51.626;7.516;2022-08-19T02:13:10;4.90;;;4.40;;
4529;SDS011;2277;51.626;7.516;2022-08-19T02:15:37;3.47;;;2.50;;
4529;SDS011;2277;51.626;7.516;2022-08-19T02:18:02;4.30;;;3.17;;
4529;SDS011;2277;51.626;7.516;2022-08-19T02:20:28;3.97;;;3.00;;
4529;SDS011;2277;51.626;7.516;2022-08-19T02:22:54;5.87;;;3.83;;
4529;SDS011;2277;51.626;7.516;2022-08-19T02:25:19;4.00;;;2.43;;
4529;SDS011;2277;51.626;7.516;2022-08-19T02:27:45;2.93;;;2.73;;
4529;SDS011;2277;51.626;7.516;2022-08-19T02:30:12;3.33;;;3.03;;
4529;SDS011;2277;51.626;7.516;2022-08-19T02:32:40;2.73;;;2.47;;
4529;SDS011;2277;51.626;7.516;2022-08-19T02:35:06;4.83;;;3.40;;
4529;SDS011;2277;51.626;7.516;2022-08-19T02:37:32;5.03;;;4.47;;
4529;SDS011;2277;51.626;7.516;2022-08-19T02:40:17;5.43;;;4.50;;
4529;SDS011;2277;51.626;7.516;2022-08-19T02:42:43;4.83;;;3.50;;
4529;SDS011;2277;51.626;7.516;2022-08-19T02:45:10;5.10;;;4.60;;
4529;SDS011;2277;51.626;7.516;2022-08-19T02:47:37;3.03;;;2.83;;
4529;SDS011;2277;51.626;7.516;2022-08-19T02:50:02;5.40;;;4.87;;
4529;SDS011;2277;51.626;7.516;2022-08-19T02:52:29;4.87;;;4.47;;
4529;SDS011;2277;51.626;7.516;2022-08-19T02:54:56;4.37;;;3.30;;
4529;SDS011;2277;51.626;7.516;2022-08-19T02:57:22;2.13;;;1.93;;
4529;SDS011;2277;51.626;7.516;2022-08-19T02:59:48;6.73;;;3.87;;
4529;SDS011;2277;51.626;7.516;2022-08-19T03:02:14;4.80;;;4.33;;
4529;SDS011;2277;51.626;7.516;2022-08-19T03:04:40;5.23;;;4.83;;
4529;SDS011;2277;51.626;7.516;2022-08-19T03:07:07;5.90;;;5.47;;
4529;SDS011;2277;51.626;7.516;2022-08-19T03:09:33;5.20;;;4.80;;
4529;SDS011;2277;51.626;7.516;2022-08-19T03:12:02;4.67;;;4.30;;
4529;SDS011;2277;51.626;7.516;2022-08-19T03:14:31;5.30;;;3.83;;
4529;SDS011;2277;51.626;7.516;2022-08-19T03:16:58;5.40;;;4.87;;
4529;SDS011;2277;51.626;7.516;2022-08-19T03:19:24;5.67;;;4.67;;
4529;SDS011;2277;51.626;7.516;2022-08-19T03:21:50;5.17;;;3.87;;
4529;SDS011;2277;51.626;7.516;2022-08-19T03:24:17;4.37;;;3.97;;
4529;SDS011;2277;51.626;7.516;2022-08-19T03:26:45;4.80;;;4.40;;
4529;SDS011;2277;51.626;7.516;2022-08-19T03:29:16;5.97;;;5.53;;
4529;SDS011;2277;51.626;7.516;2022-08-19T03:31:43;4.23;;;3.93;;
4529;SDS011;2277;51.626;7.516;2022-08-19T03:34:10;3.87;;;3.07;;
4529;SDS011;2277;51.626;7.516;2022-08-19T03:36:42;6.90;;;5.83;;
4529;SDS011;2277;51.626;7.516;2022-08-19T03:39:09;4.27;;;3.87;;
4529;SDS011;2277;51.626;7.516;2022-08-19T03:41:36;7.40;;;4.83;;
4529;SDS011;2277;51.626;7.516;2022-08-19T03:44:04;6.03;;;5.53;;
4529;SDS011;2277;51.626;7.516;2022-08-19T03:46:31;4.80;;;3.50;;
4529;SDS011;2277;51.626;7.516;2022-08-19T03:48:58;5.23;;;4.83;;
4529;SDS011;2277;51.626;7.516;2022-08-19T03:51:27;5.00;;;4.53;;
4529;SDS011;2277;51.626;7.516;2022-08-19T03:53:55;3.50;;;3.20;;
4529;SDS011;2277;51.626;7.516;2022-08-19T03:56:21;5.97;;;4.60;;
4529;SDS011;2277;51.626;7.516;2022-08-19T03:58:47;4.20;;;3.80;;
4529;SDS011;2277;51.626;7.516;2022-08-19T04:01:15;5.97;;;4.87;;
4529;SDS011;2277;51.626;7.516;2022-08-19T04:03:43;5.83;;;5.33;;
4529;SDS011;2277;51.626;7.516;2022-08-19T04:08:43;5.60;;;5.10;;
4529;SDS011;2277;51.626;7.516;2022-08-19T04:11:11;6.00;;;5.50;;
4529;SDS011;2277;51.626;7.516;2022-08-19T04:13:39;5.87;;;5.37;;
4529;SDS011;2277;51.626;7.516;2022-08-19T04:16:05;4.53;;;4.20;;
4529;SDS011;2277;51.626;7.516;2022-08-19T04:18:32;7.07;;;5.37;;
4529;SDS011;2277;51.626;7.516;2022-08-19T04:20:58;7.00;;;4.77;;
4529;SDS011;2277;51.626;7.516;2022-08-19T04:23:25;7.97;;;6.77;;
4529;SDS011;2277;51.626;7.516;2022-08-19T04:25:53;3.40;;;3.20;;
4529;SDS011;2277;51.626;7.516;2022-08-19T04:28:19;7.67;;;6.87;;
4529;SDS011;2277;51.626;7.516;2022-08-19T04:30:46;6.43;;;4.87;;
4529;SDS011;2277;51.626;7.516;2022-08-19T04:33:17;6.23;;;5.73;;
4529;SDS011;2277;51.626;7.516;2022-08-19T04:35:45;10.87;;;7.13;;
4529;SDS011;2277;51.626;7.516;2022-08-19T04:38:13;4.97;;;4.43;;
4529;SDS011;2277;51.626;7.516;2022-08-19T04:40:41;4.80;;;4.40;;
4529;SDS011;2277;51.626;7.516;2022-08-19T04:43:26;7.73;;;6.10;;
4529;SDS011;2277;51.626;7.516;2022-08-19T04:45:52;6.43;;;5.73;;
4529;SDS011;2277;51.626;7.516;2022-08-19T04:48:19;5.40;;;4.90;;
4529;SDS011;2277;51.626;7.516;2022-08-19T04:50:50;6.30;;;5.80;;
4529;SDS011;2277;51.626;7.516;2022-08-19T04:53:26;6.40;;;5.90;;
4529;SDS011;2277;51.626;7.516;2022-08-19T04:55:54;5.90;;;4.80;;
4529;SDS011;2277;51.626;7.516;2022-08-19T04:58:21;7.77;;;7.00;;
4529;SDS011;2277;51.626;7.516;2022-08-19T05:00:48;6.73;;;5.67;;
4529;SDS011;2277;51.626;7.516;2022-08-19T05:03:13;25.53;;;5.10;;
4529;SDS011;2277;51.626;7.516;2022-08-19T05:05:42;6.50;;;4.80;;
4529;SDS011;2277;51.626;7.516;2022-08-19T05:08:09;5.70;;;5.10;;
4529;SDS011;2277;51.626;7.516;2022-08-19T05:10:43;4.63;;;4.23;;
4529;SDS011;2277;51.626;7.516;2022-08-19T05:13:09;4.67;;;4.27;;
4529;SDS011;2277;51.626;7.516;2022-08-19T05:15:35;6.03;;;4.87;;
4529;SDS011;2277;51.626;7.516;2022-08-19T05:18:01;6.37;;;5.77;;
4529;SDS011;2277;51.626;7.516;2022-08-19T05:20:46;7.73;;;6.67;;
4529;SDS011;2277;51.626;7.516;2022-08-19T05:23:30;6.53;;;4.93;;
4529;SDS011;2277;51.626;7.516;2022-08-19T05:25:55;6.63;;;4.63;;
4529;SDS011;2277;51.626;7.516;2022-08-19T05:28:21;5.53;;;4.63;;
4529;SDS011;2277;51.626;7.516;2022-08-19T05:30:46;4.63;;;3.90;;
4529;SDS011;2277;51.626;7.516;2022-08-19T05:33:13;7.20;;;6.50;;
4529;SDS011;2277;51.626;7.516;2022-08-19T05:35:39;4.70;;;3.37;;
4529;SDS011;2277;51.626;7.516;2022-08-19T05:38:06;7.97;;;6.37;;
4529;SDS011;2277;51.626;7.516;2022-08-19T05:40:35;6.87;;;6.27;;
4529;SDS011;2277;51.626;7.516;2022-08-19T05:43:03;6.70;;;6.07;;
4529;SDS011;2277;51.626;7.516;2022-08-19T05:45:30;9.63;;;6.60;;
4529;SDS011;2277;51.626;7.516;2022-08-19T05:47:56;12.97;;;8.17;;
4529;SDS011;2277;51.626;7.516;2022-08-19T05:50:23;26.50;;;6.90;;
4529;SDS011;2277;51.626;7.516;2022-08-19T05:52:50;6.90;;;5.27;;
4529;SDS011;2277;51.626;7.516;2022-08-19T05:55:15;6.40;;;5.40;;
4529;SDS011;2277;51.626;7.516;2022-08-19T05:57:41;7.37;;;5.47;;
4529;SDS011;2277;51.626;7.516;2022-08-19T06:00:07;7.07;;;6.37;;
4529;SDS011;2277;51.626;7.516;2022-08-19T06:02:35;11.80;;;7.17;;
4529;SDS011;2277;51.626;7.516;2022-08-19T06:05:02;7.20;;;6.40;;
4529;SDS011;2277;51.626;7.516;2022-08-19T06:07:30;7.27;;;5.63;;
4529;SDS011;2277;51.626;7.516;2022-08-19T06:09:56;9.50;;;7.67;;
4529;SDS011;2277;51.626;7.516;2022-08-19T06:12:22;7.43;;;6.73;;
4529;SDS011;2277;51.626;7.516;2022-08-19T06:14:53;7.90;;;5.23;;
4529;SDS011;2277;51.626;7.516;2022-08-19T06:17:19;19.53;;;8.07;;
4529;SDS011;2277;51.626;7.516;2022-08-19T06:19:50;9.00;;;8.07;;
4529;SDS011;2277;51.626;7.516;2022-08-19T06:22:15;8.43;;;7.60;;
4529;SDS011;2277;51.626;7.516;2022-08-19T06:24:41;10.17;;;7.23;;
4529;SDS011;2277;51.626;7.516;2022-08-19T06:27:07;7.20;;;6.70;;
4529;SDS011;2277;51.626;7.516;2022-08-19T06:29:33;11.30;;;9.07;;
4529;SDS011;2277;51.626;7.516;2022-08-19T06:32:00;9.13;;;8.23;;
4529;SDS011;2277;51.626;7.516;2022-08-19T06:34:27;8.53;;;7.07;;
4529;SDS011;2277;51.626;7.516;2022-08-19T06:36:55;7.77;;;6.83;;
4529;SDS011;2277;51.626;7.516;2022-08-19T06:39:27;18.13;;;10.30;;
4529;SDS011;2277;51.626;7.516;2022-08-19T06:41:59;10.10;;;7.97;;
4529;SDS011;2277;51.626;7.516;2022-08-19T06:44:28;7.70;;;6.90;;
4529;SDS011;2277;51.626;7.516;2022-08-19T06:46:56;8.23;;;7.27;;
4529;SDS011;2277;51.626;7.516;2022-08-19T06:49:22;9.70;;;7.67;;
4529;SDS011;2277;51.626;7.516;2022-08-19T06:51:49;13.93;;;10.80;;
4529;SDS011;2277;51.626;7.516;2022-08-19T06:54:16;10.60;;;8.30;;
4529;SDS011;2277;51.626;7.516;2022-08-19T06:56:43;11.73;;;9.77;;
4529;SDS011;2277;51.626;7.516;2022-08-19T06:59:12;16.20;;;11.30;;
4529;SDS011;2277;51.626;7.516;2022-08-19T07:01:42;29.53;;;10.70;;
4529;SDS011;2277;51.626;7.516;2022-08-19T07:04:12;19.70;;;10.10;;
4529;SDS011;2277;51.626;7.516;2022-08-19T07:06:39;10.63;;;9.33;;
4529;SDS011;2277;51.626;7.516;2022-08-19T07:09:05;12.57;;;10.90;;
4529;SDS011;2277;51.626;7.516;2022-08-19T07:11:34;13.70;;;12.40;;
4529;SDS011;2277;51.626;7.516;2022-08-19T07:14:00;14.10;;;11.70;;
4529;SDS011;2277;51.626;7.516;2022-08-19T07:16:25;14.17;;;12.73;;
4529;SDS011;2277;51.626;7.516;2022-08-19T07:18:52;15.93;;;12.00;;
4529;SDS011;2277;51.626;7.516;2022-08-19T07:21:19;19.43;;;15.13;;
4529;SDS011;2277;51.626;7.516;2022-08-19T07:23:48;14.93;;;13.17;;
4529;SDS011;2277;51.626;7.516;2022-08-19T07:28:42;15.70;;;12.67;;
4529;SDS011;2277;51.626;7.516;2022-08-19T07:31:12;26.40;;;13.97;;
4529;SDS011;2277;51.626;7.516;2022-08-19T07:33:40;13.20;;;10.40;;
4529;SDS011;2277;51.626;7.516;2022-08-19T07:36:08;20.77;;;12.47;;
4529;SDS011;2277;51.626;7.516;2022-08-19T07:38:36;15.30;;;10.90;;
4529;SDS011;2277;51.626;7.516;2022-08-19T07:41:03;20.60;;;12.63;;
4529;SDS011;2277;51.626;7.516;2022-08-19T07:43:29;12.80;;;10.83;;
4529;SDS011;2277;51.626;7.516;2022-08-19T07:45:54;12.63;;;9.97;;
4529;SDS011;2277;51.626;7.516;2022-08-19T07:48:23;10.70;;;8.83;;
4529;SDS011;2277;51.626;7.516;2022-08-19T07:50:56;12.40;;;9.03;;
4529;SDS011;2277;51.626;7.516;2022-08-19T07:53:26;14.27;;;12.87;;
4529;SDS011;2277;51.626;7.516;2022-08-19T07:55:53;12.57;;;11.33;;
4529;SDS011;2277;51.626;7.516;2022-08-19T07:58:20;12.57;;;9.67;;
4529;SDS011;2277;51.626;7.516;2022-08-19T08:00:47;11.97;;;10.80;;
4529;SDS011;2277;51.626;7.516;2022-08-19T08:03:15;15.00;;;12.60;;
4529;SDS011;2277;51.626;7.516;2022-08-19T08:05:43;13.80;;;11.63;;
4529;SDS011;2277;51.626;7.516;2022-08-19T08:08:27;25.30;;;11.23;;
4529;SDS011;2277;51.626;7.516;2022-08-19T08:11:13;9.03;;;8.33;;
4529;SDS011;2277;51.626;7.516;2022-08-19T08:13:40;10.03;;;9.13;;
4529;SDS011;2277;51.626;7.516;2022-08-19T08:16:06;11.20;;;9.93;;
4529;SDS011;2277;51.626;7.516;2022-08-19T08:18:32;12.87;;;8.93;;
4529;SDS011;2277;51.626;7.516;2022-08-19T08:20:59;11.07;;;9.90;;
4529;SDS011;2277;51.626;7.516;2022-08-19T08:23:25;11.23;;;10.13;;
4529;SDS011;2277;51.626;7.516;2022-08-19T08:25:52;9.73;;;8.90;;
4529;SDS011;2277;51.626;7.516;2022-08-19T08:28:20;9.67;;;8.60;;
4529;SDS011;2277;51.626;7.516;2022-08-19T08:30:47;8.93;;;7.73;;
4529;SDS011;2277;51.626;7.516;2022-08-19T08:33:14;12.00;;;9.93;;
4529;SDS011;2277;51.626;7.516;2022-08-19T08:35:44;11.20;;;9.33;;
4529;SDS011;2277;51.626;7.516;2022-08-19T08:38:10;14.17;;;10.40;;
4529;SDS011;2277;51.626;7.516;2022-08-19T08:43:28;9.57;;;8.67;;
4529;SDS011;2277;51.626;7.516;2022-08-19T08:46:06;9.30;;;7.37;;
4529;SDS011;2277;51.626;7.516;2022-08-19T08:51:13;11.37;;;9.07;;
4529;SDS011;2277;51.626;7.516;2022-08-19T08:53:43;13.33;;;10.33;;
4529;SDS011;2277;51.626;7.516;2022-08-19T08:56:11;14.27;;;8.50;;
4529;SDS011;2277;51.626;7.516;2022-08-19T09:01:43;4.83;;;4.43;;
4529;SDS011;2277;51.626;7.516;2022-08-19T09:04:08;5.40;;;4.67;;
4529;SDS011;2277;51.626;7.516;2022-08-19T09:06:47;5.30;;;4.40;;
4529;SDS011;2277;51.626;7.516;2022-08-19T09:09:35;7.77;;;5.30;;
4529;SDS011;2277;51.626;7.516;2022-08-19T09:12:10;4.40;;;4.00;;
4529;SDS011;2277;51.626;7.516;2022-08-19T09:14:53;5.63;;;4.10;;
4529;SDS011;2277;51.626;7.516;2022-08-19T09:17:24;4.40;;;4.00;;
4529;SDS011;2277;51.626;7.516;2022-08-19T09:20:00;8.43;;;6.30;;
4529;SDS011;2277;51.626;7.516;2022-08-19T09:22:32;5.93;;;5.43;;
4529;SDS011;2277;51.626;7.516;2022-08-19T09:24:58;8.07;;;3.87;;
4529;SDS011;2277;51.626;7.516;2022-08-19T09:27:25;4.60;;;4.20;;
4529;SDS011;2277;51.626;7.516;2022-08-19T09:29:52;4.80;;;4.37;;
4529;SDS011;2277;51.626;7.516;2022-08-19T09:32:19;5.03;;;4.30;;
4529;SDS011;2277;51.626;7.516;2022-08-19T09:34:45;4.50;;;4.13;;
4529;SDS011;2277;51.626;7.516;2022-08-19T09:37:11;7.77;;;4.73;;
4529;SDS011;2277;51.626;7.516;2022-08-19T09:39:37;8.43;;;4.60;;
4529;SDS011;2277;51.626;7.516;2022-08-19T09:42:05;5.73;;;4.73;;
4529;SDS011;2277;51.626;7.516;2022-08-19T09:44:40;7.53;;;4.93;;
4529;SDS011;2277;51.626;7.516;2022-08-19T09:47:06;4.77;;;4.07;;
4529;SDS011;2277;51.626;7.516;2022-08-19T09:49:33;3.67;;;3.37;;
4529;SDS011;2277;51.626;7.516;2022-08-19T09:51:59;4.33;;;3.93;;
4529;SDS011;2277;51.626;7.516;2022-08-19T09:54:25;3.70;;;3.03;;
4529;SDS011;2277;51.626;7.516;2022-08-19T09:56:53;5.57;;;3.07;;
4529;SDS011;2277;51.626;7.516;2022-08-19T09:59:20;9.13;;;4.37;;
4529;SDS011;2277;51.626;7.516;2022-08-19T10:01:46;6.83;;;4.53;;
4529;SDS011;2277;51.626;7.516;2022-08-19T10:04:12;5.30;;;4.80;;
4529;SDS011;2277;51.626;7.516;2022-08-19T10:06:38;4.63;;;4.10;;
4529;SDS011;2277;51.626;7.516;2022-08-19T10:09:05;4.27;;;3.87;;
4529;SDS011;2277;51.626;7.516;2022-08-19T10:11:34;5.73;;;4.97;;
4529;SDS011;2277;51.626;7.516;2022-08-19T10:14:01;4.13;;;3.80;;
4529;SDS011;2277;51.626;7.516;2022-08-19T10:16:30;3.87;;;3.20;;
4529;SDS011;2277;51.626;7.516;2022-08-19T10:18:56;5.57;;;4.43;;
4529;SDS011;2277;51.626;7.516;2022-08-19T10:21:23;3.60;;;3.33;;
4529;SDS011;2277;51.626;7.516;2022-08-19T10:23:51;4.70;;;4.30;;
4529;SDS011;2277;51.626;7.516;2022-08-19T10:26:21;3.07;;;2.87;;
4529;SDS011;2277;51.626;7.516;2022-08-19T10:28:48;3.57;;;3.27;;
4529;SDS011;2277;51.626;7.516;2022-08-19T10:31:16;5.43;;;4.00;;
4529;SDS011;2277;51.626;7.516;2022-08-19T10:33:50;5.30;;;4.80;;
4529;SDS011;2277;51.626;7.516;2022-08-19T10:36:22;5.27;;;3.50;;
4529;SDS011;2277;51.626;7.516;2022-08-19T10:39:07;5.73;;;5.10;;
4529;SDS011;2277;51.626;7.516;2022-08-19T10:41:35;4.67;;;4.27;;
4529;SDS011;2277;51.626;7.516;2022-08-19T10:44:11;6.10;;;4.93;;
4529;SDS011;2277;51.626;7.516;2022-08-19T10:46:39;12.20;;;4.03;;
4529;SDS011;2277;51.626;7.516;2022-08-19T10:49:07;5.33;;;4.40;;
4529;SDS011;2277;51.626;7.516;2022-08-19T10:51:35;4.97;;;4.57;;
4529;SDS011;2277;51.626;7.516;2022-08-19T10:54:20;8.30;;;5.73;;
4529;SDS011;2277;51.626;7.516;2022-08-19T10:56:46;5.00;;;4.50;;
4529;SDS011;2277;51.626;7.516;2022-08-19T10:59:18;10.03;;;3.60;;
4529;SDS011;2277;51.626;7.516;2022-08-19T11:01:50;10.53;;;4.60;;
4529;SDS011;2277;51.626;7.516;2022-08-19T11:04:17;6.10;;;5.60;;
4529;SDS011;2277;51.626;7.516;2022-08-19T11:06:45;5.40;;;4.90;;
4529;SDS011;2277;51.626;7.516;2022-08-19T11:09:20;9.90;;;4.23;;
4529;SDS011;2277;51.626;7.516;2022-08-19T11:11:49;5.20;;;4.27;;
4529;SDS011;2277;51.626;7.516;2022-08-19T11:14:16;9.30;;;5.03;;
4529;SDS011;2277;51.626;7.516;2022-08-19T11:16:46;5.43;;;4.60;;
4529;SDS011;2277;51.626;7.516;2022-08-19T11:19:15;7.60;;;4.33;;
4529;SDS011;2277;51.626;7.516;2022-08-19T11:21:44;8.43;;;4.60;;
4529;SDS011;2277;51.626;7.516;2022-08-19T11:24:15;8.10;;;4.60;;
4529;SDS011;2277;51.626;7.516;2022-08-19T11:26:46;6.83;;;5.10;;
4529;SDS011;2277;51.626;7.516;2022-08-19T11:29:14;5.20;;;3.80;;
4529;SDS011;2277;51.626;7.516;2022-08-19T11:31:42;9.03;;;5.00;;
4529;SDS011;2277;51.626;7.516;2022-08-19T11:34:10;7.50;;;4.80;;
4529;SDS011;2277;51.626;7.516;2022-08-19T11:36:39;5.67;;;5.20;;
4529;SDS011;2277;51.626;7.516;2022-08-19T11:39:07;8.10;;;4.90;;
4529;SDS011;2277;51.626;7.516;2022-08-19T11:41:34;5.37;;;4.87;;
4529;SDS011;2277;51.626;7.516;2022-08-19T11:44:00;9.70;;;5.20;;
4529;SDS011;2277;51.626;7.516;2022-08-19T11:46:27;5.37;;;4.87;;
4529;SDS011;2277;51.626;7.516;2022-08-19T11:48:56;7.47;;;4.30;;
4529;SDS011;2277;51.626;7.516;2022-08-19T11:51:24;4.50;;;3.87;;
4529;SDS011;2277;51.626;7.516;2022-08-19T11:53:51;4.40;;;3.13;;
4529;SDS011;2277;51.626;7.516;2022-08-19T11:56:18;6.33;;;4.37;;
4529;SDS011;2277;51.626;7.516;2022-08-19T11:58:45;3.70;;;3.40;;
4529;SDS011;2277;51.626;7.516;2022-08-19T12:01:11;3.40;;;3.10;;
4529;SDS011;2277;51.626;7.516;2022-08-19T12:03:40;3.10;;;2.90;;
4529;SDS011;2277;51.626;7.516;2022-08-19T12:06:06;4.40;;;4.00;;
4529;SDS011;2277;51.626;7.516;2022-08-19T12:08:33;3.87;;;2.80;;
4529;SDS011;2277;51.626;7.516;2022-08-19T12:10:59;14.10;;;3.47;;
4529;SDS011;2277;51.626;7.516;2022-08-19T12:13:28;3.93;;;3.03;;
4529;SDS011;2277;51.626;7.516;2022-08-19T12:15:55;3.20;;;2.90;;
4529;SDS011;2277;51.626;7.516;2022-08-19T12:18:21;2.70;;;2.50;;
4529;SDS011;2277;51.626;7.516;2022-08-19T12:20:46;6.10;;;4.00;;
4529;SDS011;2277;51.626;7.516;2022-08-19T12:23:12;5.10;;;3.73;;
4529;SDS011;2277;51.626;7.516;2022-08-19T12:25:43;10.67;;;6.03;;
4529;SDS011;2277;51.626;7.516;2022-08-19T12:28:14;4.70;;;4.30;;
4529;SDS011;2277;51.626;7.516;2022-08-19T12:30:41;5.03;;;3.60;;
4529;SDS011;2277;51.626;7.516;2022-08-19T12:33:07;8.63;;;5.80;;
4529;SDS011;2277;51.626;7.516;2022-08-19T12:35:33;4.47;;;4.17;;
4529;SDS011;2277;51.626;7.516;2022-08-19T12:37:59;4.13;;;3.83;;
4529;SDS011;2277;51.626;7.516;2022-08-19T12:40:27;5.90;;;4.03;;
4529;SDS011;2277;51.626;7.516;2022-08-19T12:42:53;4.30;;;3.83;;
4529;SDS011;2277;51.626;7.516;2022-08-19T12:45:19;3.13;;;2.83;;
4529;SDS011;2277;51.626;7.516;2022-08-19T12:47:45;4.97;;;4.43;;
4529;SDS011;2277;51.626;7.516;2022-08-19T12:50:11;5.33;;;4.43;;
4529;SDS011;2277;51.626;7.516;2022-08-19T12:52:37;4.50;;;3.90;;
4529;SDS011;2277;51.626;7.516;2022-08-19T12:55:04;9.23;;;5.27;;
4529;SDS011;2277;51.626;7.516;2022-08-19T12:57:31;4.87;;;4.37;;
4529;SDS011;2277;51.626;7.516;2022-08-19T13:00:09;4.23;;;3.90;;
4529;SDS011;2277;51.626;7.516;2022-08-19T13:02:42;8.80;;;4.70;;
4529;SDS011;2277;51.626;7.516;2022-08-19T13:05:10;6.50;;;5.90;;
4529;SDS011;2277;51.626;7.516;2022-08-19T13:07:39;7.97;;;4.43;;
4529;SDS011;2277;51.626;7.516;2022-08-19T13:10:06;6.40;;;4.30;;
4529;SDS011;2277;51.626;7.516;2022-08-19T13:12:33;5.83;;;5.00;;
4529;SDS011;2277;51.626;7.516;2022-08-19T13:14:58;14.90;;;5.37;;
4529;SDS011;2277;51.626;7.516;2022-08-19T13:17:24;6.87;;;5.30;;
4529;SDS011;2277;51.626;7.516;2022-08-19T13:19:50;7.30;;;4.07;;
4529;SDS011;2277;51.626;7.516;2022-08-19T13:22:15;5.87;;;4.67;;
4529;SDS011;2277;51.626;7.516;2022-08-19T13:24:41;3.50;;;3.23;;
4529;SDS011;2277;51.626;7.516;2022-08-19T13:27:07;5.67;;;4.80;;
4529;SDS011;2277;51.626;7.516;2022-08-19T13:29:33;6.10;;;3.77;;
4529;SDS011;2277;51.626;7.516;2022-08-19T13:32:17;5.43;;;4.37;;
4529;SDS011;2277;51.626;7.516;2022-08-19T13:35:02;4.83;;;4.43;;
4529;SDS011;2277;51.626;7.516;2022-08-19T13:37:28;4.20;;;3.50;;
4529;SDS011;2277;51.626;7.516;2022-08-19T13:40:13;5.47;;;4.40;;
4529;SDS011;2277;51.626;7.516;2022-08-19T13:42:51;4.33;;;3.93;;
4529;SDS011;2277;51.626;7.516;2022-08-19T13:45:21;5.60;;;4.77;;
4529;SDS011;2277;51.626;7.516;2022-08-19T13:47:49;7.20;;;5.63;;
4529;SDS011;2277;51.626;7.516;2022-08-19T13:50:18;4.43;;;3.63;;
4529;SDS011;2277;51.626;7.516;2022-08-19T13:52:45;5.50;;;5.00;;
4529;SDS011;2277;51.626;7.516;2022-08-19T13:55:12;3.97;;;3.67;;
4529;SDS011;2277;51.626;7.516;2022-08-19T13:57:38;5.60;;;5.10;;
4529;SDS011;2277;51.626;7.516;2022-08-19T14:00:06;5.67;;;5.10;;
4529;SDS011;2277;51.626;7.516;2022-08-19T14:02:35;5.97;;;3.60;;
4529;SDS011;2277;51.626;7.516;2022-08-19T14:05:02;6.70;;;5.50;;
4529;SDS011;2277;51.626;7.516;2022-08-19T14:07:29;5.30;;;4.80;;
4529;SDS011;2277;51.626;7.516;2022-08-19T14:09:55;5.50;;;5.00;;
4529;SDS011;2277;51.626;7.516;2022-08-19T14:12:21;5.30;;;4.80;;
4529;SDS011;2277;51.626;7.516;2022-08-19T14:14:47;7.00;;;5.13;;
4529;SDS011;2277;51.626;7.516;2022-08-19T14:17:13;5.33;;;4.70;;
4529;SDS011;2277;51.626;7.516;2022-08-19T14:19:38;5.50;;;4.53;;
4529;SDS011;2277;51.626;7.516;2022-08-19T14:22:04;4.13;;;3.73;;
4529;SDS011;2277;51.626;7.516;2022-08-19T14:24:30;3.43;;;3.13;;
4529;SDS011;2277;51.626;7.516;2022-08-19T14:26:57;4.60;;;3.90;;
4529;SDS011;2277;51.626;7.516;2022-08-19T14:29:23;5.83;;;3.73;;
4529;SDS011;2277;51.626;7.516;2022-08-19T14:31:49;3.83;;;3.43;;
4529;SDS011;2277;51.626;7.516;2022-08-19T14:34:14;5.63;;;3.40;;
4529;SDS011;2277;51.626;7.516;2022-08-19T14:36:40;6.53;;;4.10;;
4529;SDS011;2277;51.626;7.516;2022-08-19T14:39:07;5.67;;;4.47;;
4529;SDS011;2277;51.626;7.516;2022-08-19T14:41:34;5.50;;;4.30;;
4529;SDS011;2277;51.626;7.516;2022-08-19T14:44:00;3.53;;;2.83;;
4529;SDS011;2277;51.626;7.516;2022-08-19T14:46:27;4.20;;;3.30;;
4529;SDS011;2277;51.626;7.516;2022-08-19T14:48:54;5.33;;;3.93;;
4529;SDS011;2277;51.626;7.516;2022-08-19T14:51:21;3.20;;;2.90;;
4529;SDS011;2277;51.626;7.516;2022-08-19T14:53:48;3.67;;;2.83;;
4529;SDS011;2277;51.626;7.516;2022-08-19T14:56:15;3.47;;;3.17;;
4529;SDS011;2277;51.626;7.516;2022-08-19T14:58:43;3.17;;;2.87;;
4529;SDS011;2277;51.626;7.516;2022-08-19T15:01:10;6.03;;;3.93;;
4529;SDS011;2277;51.626;7.516;2022-08-19T15:03:36;4.53;;;3.10;;
4529;SDS011;2277;51.626;7.516;2022-08-19T15:06:04;7.03;;;3.57;;
4529;SDS011;2277;51.626;7.516;2022-08-19T15:08:31;3.77;;;3.00;;
4529;SDS011;2277;51.626;7.516;2022-08-19T15:11:00;2.70;;;2.50;;
4529;SDS011;2277;51.626;7.516;2022-08-19T15:13:27;2.90;;;2.30;;
4529;SDS011;2277;51.626;7.516;2022-08-19T15:15:54;7.33;;;3.40;;
4529;SDS011;2277;51.626;7.516;2022-08-19T15:18:20;4.13;;;2.47;;
4529;SDS011;2277;51.626;7.516;2022-08-19T15:20:47;4.10;;;3.33;;
4529;SDS011;2277;51.626;7.516;2022-08-19T15:23:13;4.20;;;2.93;;
4529;SDS011;2277;51.626;7.516;2022-08-19T15:25:40;3.97;;;2.73;;
4529;SDS011;2277;51.626;7.516;2022-08-19T15:28:07;2.70;;;2.20;;
4529;SDS011;2277;51.626;7.516;2022-08-19T15:30:35;3.00;;;2.47;;
4529;SDS011;2277;51.626;7.516;2022-08-19T15:33:02;13.83;;;3.37;;